Notice: Use of undefined constant NAME - assumed 'NAME' in /home/bismarckweather/public_html/wxwuhistory.php on line 72

Notice: Use of undefined constant NAME - assumed 'NAME' in /home/bismarckweather/public_html/wxwuhistory.php on line 72
^^
Station Historical Data
Daily Summary for August 11, 2018 Units:  English    Metric   Both
« Previous Day
Next Day »
Daily Weekly Monthly Yearly Custom
  High: Low: Average:
Temperature: 99.6 °F 64.7 °F 80.7 °F
Dew Point: 70.1 °F 54.6 °F 64 °F
Humidity: 92% 23% 63%
Wind Speed: 16mph 1mph 7.3mph
Wind Gust: 18mph - -
Wind- - ESE
Pressure: 29.88 in 29.75 in -
Precipitation: 0 in    
Historical Graphs
 
 
Tabular Data for August 11, 2018
Time Temperature Dew Point Pressure Wind Wind Speed Wind Gust Humidity Rainfall Rate (Hourly) solar Conditions
00:04 72.3 °F 66.1 °F 29.85 in ESE 13 mph 13 mph 81% 0 in 0.00 W/m2
00:09 72.2 °F 66 °F 29.85 in East 7 mph 13 mph 81% 0 in 0.00 W/m2
00:14 72.2 °F 66 °F 29.85 in ESE 7 mph 13 mph 81% 0 in 0.00 W/m2
00:19 72 °F 65.8 °F 29.85 in ESE 10 mph 11 mph 81% 0 in 0.00 W/m2
00:24 71.9 °F 66.1 °F 29.84 in ESE 9 mph 12 mph 82% 0 in 0.00 W/m2
00:29 71.7 °F 65.9 °F 29.84 in East 11 mph 12 mph 82% 0 in 0.00 W/m2
00:34 71.5 °F 65.7 °F 29.84 in East 10 mph 12 mph 82% 0 in 0.00 W/m2
00:39 71.3 °F 65.9 °F 29.85 in East 9 mph 12 mph 83% 0 in 0.00 W/m2
00:44 71.1 °F 65.7 °F 29.85 in ESE 10 mph 11 mph 83% 0 in 0.00 W/m2
00:49 70.9 °F 65.8 °F 29.85 in ESE 10 mph 13 mph 84% 0 in 0.00 W/m2
00:54 70.8 °F 65.7 °F 29.85 in East 9 mph 13 mph 84% 0 in 0.00 W/m2
00:59 70.6 °F 65.5 °F 29.84 in East 9 mph 13 mph 84% 0 in 0.00 W/m2
01:04 70.5 °F 65.4 °F 29.84 in East 8 mph 13 mph 84% 0 in 0.00 W/m2
01:09 70.3 °F 65.2 °F 29.84 in ESE 10 mph 11 mph 84% 0 in 0.00 W/m2
01:14 70 °F 64.9 °F 29.84 in ESE 7 mph 11 mph 84% 0 in 0.00 W/m2
01:19 69.7 °F 65 °F 29.85 in ESE 8 mph 10 mph 85% 0 in 0.00 W/m2
01:24 69.5 °F 64.8 °F 29.85 in ESE 7 mph 10 mph 85% 0 in 0.00 W/m2
01:29 69.3 °F 64.9 °F 29.84 in ESE 8 mph 10 mph 86% 0 in 0.00 W/m2
01:34 69.3 °F 64.9 °F 29.84 in ESE 5 mph 10 mph 86% 0 in 0.00 W/m2
01:39 69.2 °F 64.8 °F 29.85 in ESE 5 mph 10 mph 86% 0 in 0.00 W/m2
01:44 69.1 °F 65.1 °F 29.85 in East 6 mph 9 mph 87% 0 in 0.00 W/m2
01:49 68.9 °F 64.9 °F 29.84 in ESE 5 mph 8 mph 87% 0 in 0.00 W/m2
01:54 68.8 °F 64.8 °F 29.84 in ESE 5 mph 8 mph 87% 0 in 0.00 W/m2
01:59 68.5 °F 64.5 °F 29.84 in East 5 mph 9 mph 87% 0 in 0.00 W/m2
02:04 68.3 °F 64.3 °F 29.84 in East 6 mph 9 mph 87% 0 in 0.00 W/m2
02:09 68.2 °F 64.5 °F 29.84 in East 6 mph 9 mph 88% 0 in 0.00 W/m2
02:14 68.1 °F 64.4 °F 29.84 in East 6 mph 8 mph 88% 0 in 0.00 W/m2
02:19 67.9 °F 64.2 °F 29.84 in East 6 mph 8 mph 88% 0 in 0.00 W/m2
02:24 67.7 °F 64 °F 29.84 in East 7 mph 8 mph 88% 0 in 0.00 W/m2
02:29 67.6 °F 64.2 °F 29.84 in East 6 mph 8 mph 89% 0 in 0.00 W/m2
02:34 67.6 °F 63.9 °F 29.84 in East 6 mph 8 mph 88% 0 in 0.00 W/m2
02:39 67.4 °F 64 °F 29.84 in ESE 5 mph 8 mph 89% 0 in 0.00 W/m2
02:44 67.3 °F 63.9 °F 29.84 in East 8 mph 8 mph 89% 0 in 0.00 W/m2
02:49 67.1 °F 63.7 °F 29.84 in East 7 mph 9 mph 89% 0 in 0.00 W/m2
02:54 66.9 °F 63.6 °F 29.84 in ESE 7 mph 9 mph 89% 0 in 0.00 W/m2
02:59 66.8 °F 63.5 °F 29.84 in ESE 5 mph 8 mph 89% 0 in 0.00 W/m2
03:04 66.7 °F 63.4 °F 29.84 in ESE 5 mph 8 mph 89% 0 in 0.00 W/m2
03:09 66.6 °F 63.6 °F 29.85 in ESE 4 mph 6 mph 90% 0 in 0.00 W/m2
03:14 66.4 °F 63.4 °F 29.84 in East 7 mph 8 mph 90% 0 in 0.00 W/m2
03:19 66.4 °F 63.4 °F 29.84 in East 6 mph 8 mph 90% 0 in 0.00 W/m2
03:24 66.3 °F 63.3 °F 29.85 in East 6 mph 8 mph 90% 0 in 0.00 W/m2
03:29 66.3 °F 63.3 °F 29.85 in East 7 mph 8 mph 90% 0 in 0.00 W/m2
03:34 66.2 °F 63.2 °F 29.85 in East 6 mph 8 mph 90% 0 in 0.00 W/m2
03:39 66.2 °F 63.2 °F 29.85 in ESE 4 mph 8 mph 90% 0 in 0.00 W/m2
03:44 66.2 °F 63.2 °F 29.85 in East 6 mph 8 mph 90% 0 in 0.00 W/m2
03:49 66.1 °F 63.1 °F 29.85 in East 5 mph 7 mph 90% 0 in 0.00 W/m2
03:54 66 °F 63 °F 29.86 in East 6 mph 7 mph 90% 0 in 0.00 W/m2
03:59 65.9 °F 63.2 °F 29.86 in East 6 mph 7 mph 91% 0 in 0.00 W/m2
04:04 65.8 °F 63.1 °F 29.85 in ESE 4 mph 7 mph 91% 0 in 0.00 W/m2
04:09 65.7 °F 62.7 °F 29.85 in East 5 mph 6 mph 90% 0 in 0.00 W/m2
04:14 65.7 °F 63 °F 29.85 in East 6 mph 7 mph 91% 0 in 0.00 W/m2
04:19 65.9 °F 63.2 °F 29.85 in East 6 mph 8 mph 91% 0 in 0.00 W/m2
04:24 65.9 °F 63.2 °F 29.85 in East 5 mph 8 mph 91% 0 in 0.00 W/m2
04:29 65.7 °F 62.7 °F 29.85 in East 6 mph 7 mph 90% 0 in 0.00 W/m2
04:34 65.7 °F 62.7 °F 29.85 in East 7 mph 8 mph 90% 0 in 0.00 W/m2
04:39 65.7 °F 62.7 °F 29.85 in East 7 mph 8 mph 90% 0 in 0.00 W/m2
04:44 65.7 °F 62.7 °F 29.85 in East 5 mph 8 mph 90% 0 in 0.00 W/m2
04:49 65.5 °F 62.5 °F 29.85 in East 5 mph 8 mph 90% 0 in 0.00 W/m2
04:54 65.3 °F 62.3 °F 29.85 in East 5 mph 6 mph 90% 0 in 0.00 W/m2
04:59 65.1 °F 62.1 °F 29.85 in East 5 mph 7 mph 90% 0 in 0.00 W/m2
05:04 65.1 °F 62.4 °F 29.85 in East 5 mph 7 mph 91% 0 in 0.00 W/m2
05:09 65.4 °F 62.7 °F 29.85 in East 7 mph 7 mph 91% 0 in 0.00 W/m2
05:14 65.7 °F 63 °F 29.85 in East 6 mph 8 mph 91% 0 in 0.00 W/m2
05:19 66 °F 63 °F 29.85 in East 5 mph 8 mph 90% 0 in 0.00 W/m2
05:24 66.1 °F 63.1 °F 29.85 in East 3 mph 7 mph 90% 0 in 0.00 W/m2
05:29 65.5 °F 61.9 °F 29.86 in East 1 mph 7 mph 88% 0 in 0.00 W/m2
05:34 64.9 °F 61.6 °F 29.86 in East 1 mph 5 mph 89% 0 in 0.00 W/m2
05:39 64.7 °F 61.7 °F 29.85 in East 2 mph 5 mph 90% 0 in 0.00 W/m2
05:44 65.1 °F 62.4 °F 29.85 in ENE 3 mph 6 mph 91% 0 in 0.00 W/m2
05:49 65.2 °F 62.5 °F 29.85 in ENE 3 mph 6 mph 91% 0 in 0.00 W/m2
05:54 65.2 °F 62.5 °F 29.86 in East 3 mph 5 mph 91% 0 in 0.00 W/m2
05:59 65.4 °F 62.7 °F 29.85 in East 3 mph 6 mph 91% 0 in 0.00 W/m2
06:04 65.5 °F 62.5 °F 29.86 in East 3 mph 6 mph 90% 0 in 0.00 W/m2
06:09 65.6 °F 62.6 °F 29.86 in East 3 mph 6 mph 90% 0 in 0.00 W/m2
06:14 65.7 °F 62.7 °F 29.85 in East 5 mph 6 mph 90% 0 in 0.00 W/m2
06:19 65.7 °F 62.7 °F 29.85 in East 5 mph 6 mph 90% 0 in 0.00 W/m2
06:24 65.8 °F 62.8 °F 29.85 in East 5 mph 6 mph 90% 0 in 0.00 W/m2
06:29 65.9 °F 62.9 °F 29.85 in East 5 mph 6 mph 90% 0 in 0.00 W/m2
06:34 66.1 °F 63.1 °F 29.85 in East 5 mph 6 mph 90% 0 in 5.00 W/m2
06:39 66.2 °F 63.2 °F 29.85 in East 5 mph 6 mph 90% 0 in 5.00 W/m2
06:44 66.2 °F 63.2 °F 29.85 in East 6 mph 7 mph 90% 0 in 9.00 W/m2
06:49 66.2 °F 63.2 °F 29.86 in East 7 mph 7 mph 90% 0 in 12.00 W/m2
06:54 66 °F 63 °F 29.86 in East 6 mph 7 mph 90% 0 in 16.00 W/m2
06:59 65.9 °F 62.9 °F 29.86 in East 7 mph 7 mph 90% 0 in 19.00 W/m2
07:04 65.8 °F 62.8 °F 29.86 in East 7 mph 7 mph 90% 0 in 23.00 W/m2
07:09 65.6 °F 62.6 °F 29.86 in East 5 mph 7 mph 90% 0 in 28.00 W/m2
07:14 65.5 °F 62.5 °F 29.86 in East 6 mph 7 mph 90% 0 in 32.00 W/m2
07:19 65.3 °F 62.6 °F 29.86 in East 6 mph 7 mph 91% 0 in 35.00 W/m2
07:24 65.3 °F 62.6 °F 29.86 in ENE 4 mph 7 mph 91% 0 in 39.00 W/m2
07:29 65.2 °F 62.5 °F 29.86 in ENE 3 mph 6 mph 91% 0 in 42.00 W/m2
07:34 65.2 °F 62.5 °F 29.86 in East 2 mph 8 mph 91% 0 in 47.00 W/m2
07:39 65.3 °F 62.6 °F 29.87 in ENE 2 mph 8 mph 91% 0 in 51.00 W/m2
07:44 65.4 °F 62.7 °F 29.87 in ENE 3 mph 5 mph 91% 0 in 54.00 W/m2
07:49 65.6 °F 63.2 °F 29.87 in East 5 mph 6 mph 92% 0 in 58.00 W/m2
07:54 65.9 °F 63.5 °F 29.87 in East 5 mph 6 mph 92% 0 in 63.00 W/m2
07:59 66.3 °F 63.9 °F 29.87 in East 3 mph 6 mph 92% 0 in 67.00 W/m2
08:04 66.4 °F 63.7 °F 29.87 in ESE 5 mph 6 mph 91% 0 in 121.00 W/m2
08:09 66.5 °F 63.8 °F 29.87 in ESE 5 mph 7 mph 91% 0 in 134.00 W/m2
08:14 66.7 °F 64 °F 29.87 in ESE 4 mph 7 mph 91% 0 in 139.00 W/m2
08:19 67 °F 64 °F 29.87 in ESE 4 mph 7 mph 90% 0 in 144.00 W/m2
08:24 67.3 °F 64.3 °F 29.87 in ESE 3 mph 7 mph 90% 0 in 163.00 W/m2
08:29 67.5 °F 64.5 °F 29.87 in ESE 5 mph 7 mph 90% 0 in 185.00 W/m2
08:34 67.7 °F 64.3 °F 29.87 in ESE 4 mph 8 mph 89% 0 in 202.00 W/m2
08:39 68 °F 64.6 °F 29.87 in ESE 8 mph 8 mph 89% 0 in 216.00 W/m2
08:44 68.1 °F 64.7 °F 29.87 in ESE 5 mph 8 mph 89% 0 in 230.00 W/m2
08:49 68.3 °F 64.9 °F 29.87 in East 5 mph 9 mph 89% 0 in 246.00 W/m2
08:54 68.6 °F 65.2 °F 29.87 in ESE 5 mph 9 mph 89% 0 in 264.00 W/m2
08:59 69 °F 65.3 °F 29.88 in ESE 4 mph 9 mph 88% 0 in 283.00 W/m2
09:04 69.5 °F 65.8 °F 29.87 in SE 5 mph 9 mph 88% 0 in 295.00 W/m2
09:09 70.3 °F 66.6 °F 29.87 in SE 7 mph 8 mph 88% 0 in 313.00 W/m2
09:14 70.7 °F 66 °F 29.87 in ESE 8 mph 10 mph 85% 0 in 329.00 W/m2
09:19 71.3 °F 66.6 °F 29.87 in SE 7 mph 10 mph 85% 0 in 343.00 W/m2
09:24 72 °F 67.2 °F 29.87 in SSE 8 mph 9 mph 85% 0 in 359.00 W/m2
09:29 72.5 °F 67.4 °F 29.87 in SE 5 mph 8 mph 84% 0 in 371.00 W/m2
09:34 73 °F 66.8 °F 29.87 in ESE 5 mph 9 mph 81% 0 in 387.00 W/m2
09:39 73.4 °F 67.2 °F 29.87 in ESE 8 mph 9 mph 81% 0 in 397.00 W/m2
09:44 73.8 °F 67.2 °F 29.87 in ESE 8 mph 11 mph 80% 0 in 411.00 W/m2
09:49 74.1 °F 67.5 °F 29.87 in ESE 3 mph 11 mph 80% 0 in 427.00 W/m2
09:54 74.5 °F 67.6 °F 29.87 in ESE 8 mph 10 mph 79% 0 in 443.00 W/m2
09:59 74.8 °F 67.8 °F 29.88 in East 7 mph 10 mph 79% 0 in 455.00 W/m2
10:04 75.3 °F 68 °F 29.88 in ESE 7 mph 10 mph 78% 0 in 468.00 W/m2
10:09 75.7 °F 68 °F 29.88 in East 8 mph 9 mph 77% 0 in 482.00 W/m2
10:14 75.9 °F 67.8 °F 29.88 in ESE 4 mph 10 mph 76% 0 in 494.00 W/m2
10:19 76.6 °F 68.5 °F 29.87 in SE 3 mph 10 mph 76% 0 in 508.00 W/m2
10:24 77.3 °F 68.8 °F 29.87 in SE 8 mph 10 mph 75% 0 in 522.00 W/m2
10:29 77.7 °F 68.7 °F 29.87 in ESE 9 mph 10 mph 74% 0 in 534.00 W/m2
10:34 78.1 °F 68.7 °F 29.87 in ESE 8 mph 11 mph 73% 0 in 548.00 W/m2
10:39 78.6 °F 68.8 °F 29.87 in ESE 7 mph 12 mph 72% 0 in 559.00 W/m2
10:44 79.4 °F 68.8 °F 29.87 in SE 6 mph 12 mph 70% 0 in 570.00 W/m2
10:49 80.1 °F 69 °F 29.87 in SSE 8 mph 11 mph 69% 0 in 582.00 W/m2
10:54 80.5 °F 68.5 °F 29.87 in SSE 5 mph 12 mph 67% 0 in 592.00 W/m2
10:59 81.2 °F 69.2 °F 29.87 in ESE 10 mph 12 mph 67% 0 in 589.00 W/m2
11:04 81.8 °F 69.3 °F 29.87 in SE 10 mph 11 mph 66% 0 in 575.00 W/m2
11:09 82.4 °F 69 °F 29.87 in SE 8 mph 12 mph 64% 0 in 561.00 W/m2
11:14 83.1 °F 69.2 °F 29.87 in SE 11 mph 13 mph 63% 0 in 547.00 W/m2
11:19 83.3 °F 69.4 °F 29.87 in SE 6 mph 15 mph 63% 0 in 538.00 W/m2
11:24 84.3 °F 69.9 °F 29.86 in ESE 5 mph 15 mph 62% 0 in 545.00 W/m2
11:29 84.5 °F 68.1 °F 29.86 in SE 7 mph 13 mph 58% 0 in 568.00 W/m2
11:34 85 °F 69.1 °F 29.86 in SSE 5 mph 13 mph 59% 0 in 603.00 W/m2
11:39 85.7 °F 69.2 °F 29.86 in SSE 10 mph 14 mph 58% 0 in 647.00 W/m2
11:44 86.1 °F 69.1 °F 29.86 in SE 8 mph 14 mph 57% 0 in 686.00 W/m2
11:49 86.6 °F 70.1 °F 29.86 in SSE 7 mph 13 mph 58% 0 in 705.00 W/m2
11:54 87.2 °F 68.5 °F 29.86 in SE 10 mph 15 mph 54% 0 in 714.00 W/m2
11:59 87.5 °F 68.3 °F 29.86 in South 10 mph 15 mph 53% 0 in 722.00 W/m2
12:04 87.9 °F 68.6 °F 29.86 in SE 8 mph 12 mph 53% 0 in 726.00 W/m2
12:09 88.2 °F 68.4 °F 29.86 in SE 11 mph 12 mph 52% 0 in 733.00 W/m2
12:14 88.3 °F 67.9 °F 29.85 in SE 5 mph 14 mph 51% 0 in 740.00 W/m2
12:19 88.8 °F 67.8 °F 29.86 in SSE 8 mph 14 mph 50% 0 in 747.00 W/m2
12:24 89.5 °F 68.4 °F 29.86 in ESE 8 mph 13 mph 50% 0 in 763.00 W/m2
12:29 89.8 °F 67.5 °F 29.85 in SE 11 mph 13 mph 48% 0 in 766.00 W/m2
12:34 89.7 °F 66.8 °F 29.85 in SSE 4 mph 13 mph 47% 0 in 770.00 W/m2
12:39 90.3 °F 66.1 °F 29.85 in SSE 4 mph 13 mph 45% 0 in 775.00 W/m2
12:44 90.6 °F 67 °F 29.85 in SSE 9 mph 13 mph 46% 0 in 788.00 W/m2
12:49 90.7 °F 67.1 °F 29.85 in SSE 6 mph 14 mph 46% 0 in 786.00 W/m2
12:54 91.1 °F 66.2 °F 29.85 in SE 8 mph 14 mph 44% 0 in 789.00 W/m2
12:59 91.4 °F 65.8 °F 29.84 in ESE 11 mph 14 mph 43% 0 in 795.00 W/m2
13:04 91.6 °F 67.3 °F 29.84 in SE 5 mph 14 mph 45% 0 in 793.00 W/m2
13:09 92.1 °F 65 °F 29.84 in SSE 9 mph 14 mph 41% 0 in 802.00 W/m2
13:14 92.6 °F 66.2 °F 29.84 in SSE 7 mph 14 mph 42% 0 in 800.00 W/m2
13:19 92.8 °F 64.9 °F 29.84 in South 10 mph 14 mph 40% 0 in 802.00 W/m2
13:24 92.9 °F 64.3 °F 29.84 in SSE 7 mph 14 mph 39% 0 in 802.00 W/m2
13:29 93.2 °F 64.6 °F 29.84 in SSE 10 mph 13 mph 39% 0 in 807.00 W/m2
13:34 93.9 °F 63.7 °F 29.84 in SSE 7 mph 13 mph 37% 0 in 809.00 W/m2
13:39 94 °F 63.8 °F 29.84 in SSE 8 mph 14 mph 37% 0 in 807.00 W/m2
13:44 94.4 °F 60.9 °F 29.84 in SSE 8 mph 14 mph 33% 0 in 807.00 W/m2
13:49 94.3 °F 63.2 °F 29.83 in South 7 mph 14 mph 36% 0 in 810.00 W/m2
13:54 94.7 °F 62 °F 29.83 in SE 7 mph 14 mph 34% 0 in 812.00 W/m2
13:59 94.7 °F 62.8 °F 29.83 in South 12 mph 15 mph 35% 0 in 810.00 W/m2
14:04 95.1 °F 63.1 °F 29.83 in SE 5 mph 15 mph 35% 0 in 803.00 W/m2
14:09 95.2 °F 62.4 °F 29.83 in SSE 11 mph 15 mph 34% 0 in 805.00 W/m2
14:14 95.2 °F 63.2 °F 29.82 in SE 15 mph 15 mph 35% 0 in 803.00 W/m2
14:19 95.5 °F 64.3 °F 29.82 in SE 9 mph 15 mph 36% 0 in 802.00 W/m2
14:24 95.7 °F 64.5 °F 29.82 in SE 8 mph 15 mph 36% 0 in 798.00 W/m2
14:29 95.6 °F 63.6 °F 29.82 in ESE 11 mph 17 mph 35% 0 in 795.00 W/m2
14:34 96 °F 64.7 °F 29.82 in East 8 mph 17 mph 36% 0 in 796.00 W/m2
14:39 96.6 °F 65.3 °F 29.82 in South 9 mph 13 mph 36% 0 in 793.00 W/m2
14:44 96.8 °F 63.8 °F 29.82 in SE 9 mph 15 mph 34% 0 in 791.00 W/m2
14:49 96.5 °F 65.2 °F 29.82 in SSE 4 mph 15 mph 36% 0 in 786.00 W/m2
14:54 96.9 °F 63.9 °F 29.81 in SSE 6 mph 13 mph 34% 0 in 788.00 W/m2
14:59 97.3 °F 64.2 °F 29.81 in South 12 mph 14 mph 34% 0 in 780.00 W/m2
15:04 97.2 °F 65 °F 29.81 in ESE 11 mph 14 mph 35% 0 in 784.00 W/m2
15:09 97.5 °F 64.4 °F 29.81 in South 13 mph 13 mph 34% 0 in 768.00 W/m2
15:14 97.6 °F 64.5 °F 29.81 in SSE 8 mph 14 mph 34% 0 in 766.00 W/m2
15:19 98 °F 62.2 °F 29.81 in South 9 mph 14 mph 31% 0 in 761.00 W/m2
15:24 97.7 °F 62 °F 29.81 in SE 8 mph 14 mph 31% 0 in 758.00 W/m2
15:29 97.8 °F 62 °F 29.80 in South 7 mph 14 mph 31% 0 in 747.00 W/m2
15:34 98.1 °F 62.3 °F 29.80 in SSE 7 mph 14 mph 31% 0 in 744.00 W/m2
15:39 97.9 °F 61.2 °F 29.80 in SE 4 mph 12 mph 30% 0 in 731.00 W/m2
15:44 98 °F 60.3 °F 29.80 in SSW 9 mph 13 mph 29% 0 in 728.00 W/m2
15:49 98.4 °F 60.7 °F 29.80 in SSW 7 mph 15 mph 29% 0 in 721.00 W/m2
15:54 98.6 °F 60.8 °F 29.80 in SSE 5 mph 15 mph 29% 0 in 719.00 W/m2
15:59 98.9 °F 59.1 °F 29.80 in SSE 16 mph 16 mph 27% 0 in 708.00 W/m2
16:04 98.9 °F 60.1 °F 29.80 in SSE 4 mph 16 mph 28% 0 in 694.00 W/m2
16:09 99.2 °F 59.3 °F 29.79 in SSE 11 mph 16 mph 27% 0 in 691.00 W/m2
16:14 98.9 °F 58 °F 29.79 in SE 9 mph 13 mph 26% 0 in 682.00 W/m2
16:19 98.8 °F 59 °F 29.79 in South 11 mph 12 mph 27% 0 in 654.00 W/m2
16:24 99.1 °F 58.2 °F 29.79 in South 5 mph 17 mph 26% 0 in 657.00 W/m2
16:29 99.2 °F 59.3 °F 29.79 in South 5 mph 17 mph 27% 0 in 643.00 W/m2
16:34 99.3 °F 58.4 °F 29.79 in South 8 mph 10 mph 26% 0 in 633.00 W/m2
16:39 99.3 °F 56.1 °F 29.79 in South 4 mph 12 mph 24% 0 in 622.00 W/m2
16:44 99.4 °F 57.4 °F 29.79 in South 6 mph 12 mph 25% 0 in 613.00 W/m2
16:49 99.6 °F 56.4 °F 29.79 in ESE 8 mph 10 mph 24% 0 in 596.00 W/m2
16:54 99.2 °F 56.1 °F 29.78 in SSE 3 mph 11 mph 24% 0 in 584.00 W/m2
16:59 99.1 °F 57.1 °F 29.78 in South 8 mph 12 mph 25% 0 in 575.00 W/m2
17:04 99.4 °F 56.2 °F 29.78 in SSE 5 mph 12 mph 24% 0 in 563.00 W/m2
17:09 99.3 °F 57.3 °F 29.78 in SSE 5 mph 10 mph 25% 0 in 555.00 W/m2
17:14 99.4 °F 55.1 °F 29.78 in SE 6 mph 12 mph 23% 0 in 545.00 W/m2
17:19 99.2 °F 56.1 °F 29.78 in South 5 mph 12 mph 24% 0 in 529.00 W/m2
17:24 99.2 °F 56.1 °F 29.78 in South 4 mph 11 mph 24% 0 in 517.00 W/m2
17:29 99.1 °F 56 °F 29.78 in SSE 11 mph 12 mph 24% 0 in 499.00 W/m2
17:34 98.9 °F 55.8 °F 29.78 in SSE 8 mph 12 mph 24% 0 in 485.00 W/m2
17:39 99 °F 55.9 °F 29.78 in SSE 6 mph 12 mph 24% 0 in 473.00 W/m2
17:44 98.9 °F 55.8 °F 29.78 in SSE 10 mph 12 mph 24% 0 in 469.00 W/m2
17:49 98.8 °F 56.9 °F 29.78 in SE 7 mph 12 mph 25% 0 in 457.00 W/m2
17:54 98.7 °F 55.6 °F 29.78 in South 4 mph 12 mph 24% 0 in 445.00 W/m2
17:59 98.9 °F 54.6 °F 29.78 in SSW 7 mph 11 mph 23% 0 in 427.00 W/m2
18:04 98.9 °F 55.8 °F 29.78 in SE 5 mph 11 mph 24% 0 in 411.00 W/m2
18:09 98.7 °F 57.9 °F 29.78 in SE 8 mph 11 mph 26% 0 in 399.00 W/m2
18:14 98.4 °F 57.6 °F 29.78 in SE 8 mph 11 mph 26% 0 in 385.00 W/m2
18:19 98.3 °F 58.6 °F 29.77 in SE 6 mph 11 mph 27% 0 in 369.00 W/m2
18:24 97.8 °F 61.1 °F 29.77 in SE 7 mph 12 mph 30% 0 in 357.00 W/m2
18:29 97.4 °F 61.7 °F 29.77 in SE 8 mph 12 mph 31% 0 in 345.00 W/m2
18:34 97.4 °F 58.8 °F 29.77 in SSE 6 mph 12 mph 28% 0 in 329.00 W/m2
18:39 97.5 °F 58.9 °F 29.77 in ESE 5 mph 10 mph 28% 0 in 315.00 W/m2
18:44 97.2 °F 62.4 °F 29.77 in ESE 12 mph 12 mph 32% 0 in 302.00 W/m2
18:49 96.5 °F 62.7 °F 29.77 in SE 6 mph 15 mph 33% 0 in 287.00 W/m2
18:54 96.1 °F 63.2 °F 29.77 in SE 11 mph 15 mph 34% 0 in 271.00 W/m2
18:59 95.7 °F 62.8 °F 29.76 in ESE 9 mph 14 mph 34% 0 in 255.00 W/m2
19:04 95.4 °F 63.4 °F 29.76 in SE 9 mph 14 mph 35% 0 in 241.00 W/m2
19:09 95.1 °F 62.3 °F 29.76 in ESE 8 mph 16 mph 34% 0 in 227.00 W/m2
19:14 94.8 °F 63.7 °F 29.76 in ESE 9 mph 16 mph 36% 0 in 209.00 W/m2
19:19 94.5 °F 63.4 °F 29.76 in East 10 mph 15 mph 36% 0 in 199.00 W/m2
19:24 94.1 °F 63.1 °F 29.76 in ESE 9 mph 15 mph 36% 0 in 183.00 W/m2
19:29 93.9 °F 62.9 °F 29.76 in ESE 10 mph 14 mph 36% 0 in 167.00 W/m2
19:34 93.5 °F 62.5 °F 29.75 in ESE 10 mph 14 mph 36% 0 in 151.00 W/m2
19:39 93.2 °F 63.1 °F 29.75 in ESE 11 mph 14 mph 37% 0 in 137.00 W/m2
19:44 92.8 °F 62.7 °F 29.75 in ESE 10 mph 14 mph 37% 0 in 121.00 W/m2
19:49 92.5 °F 63.2 °F 29.76 in ESE 8 mph 14 mph 38% 0 in 107.00 W/m2
19:54 92.1 °F 62.8 °F 29.76 in East 7 mph 14 mph 38% 0 in 97.00 W/m2
19:59 91.6 °F 63.1 °F 29.76 in ESE 10 mph 12 mph 39% 0 in 83.00 W/m2
20:04 91.2 °F 62.8 °F 29.76 in ESE 12 mph 15 mph 39% 0 in 70.00 W/m2
20:09 90.8 °F 63.1 °F 29.76 in ESE 8 mph 15 mph 40% 0 in 60.00 W/m2
20:14 90.3 °F 62.7 °F 29.76 in ESE 11 mph 13 mph 40% 0 in 51.00 W/m2
20:19 89.9 °F 63 °F 29.76 in East 9 mph 13 mph 41% 0 in 42.00 W/m2
20:24 89.5 °F 63.4 °F 29.76 in East 8 mph 15 mph 42% 0 in 35.00 W/m2
20:29 89.1 °F 63.7 °F 29.76 in ESE 11 mph 15 mph 43% 0 in 28.00 W/m2
20:34 88.7 °F 64.6 °F 29.76 in ESE 10 mph 15 mph 45% 0 in 23.00 W/m2
20:39 88.1 °F 64.1 °F 29.76 in SE 10 mph 14 mph 45% 0 in 19.00 W/m2
20:44 87.7 °F 64.4 °F 29.76 in ESE 9 mph 15 mph 46% 0 in 14.00 W/m2
20:49 87.4 °F 64.7 °F 29.76 in East 13 mph 15 mph 47% 0 in 11.00 W/m2
20:54 87.1 °F 65 °F 29.76 in ESE 13 mph 18 mph 48% 0 in 7.00 W/m2
20:59 86.8 °F 65.3 °F 29.76 in ESE 12 mph 18 mph 49% 0 in 5.00 W/m2
21:04 86.3 °F 64.9 °F 29.76 in SE 10 mph 17 mph 49% 0 in 0.00 W/m2
21:09 85.9 °F 65.1 °F 29.76 in East 9 mph 16 mph 50% 0 in 0.00 W/m2
21:14 85.6 °F 65.4 °F 29.76 in East 13 mph 16 mph 51% 0 in 0.00 W/m2
21:19 85.2 °F 65 °F 29.76 in East 9 mph 15 mph 51% 0 in 0.00 W/m2
21:24 84.6 °F 65 °F 29.76 in ENE 10 mph 13 mph 52% 0 in 0.00 W/m2
21:29 84.1 °F 65.1 °F 29.77 in ESE 4 mph 13 mph 53% 0 in 0.00 W/m2
21:34 83.7 °F 65.3 °F 29.77 in ESE 9 mph 15 mph 54% 0 in 0.00 W/m2
21:39 83.4 °F 65.5 °F 29.77 in East 9 mph 15 mph 55% 0 in 0.00 W/m2
21:44 83 °F 65.7 °F 29.77 in East 10 mph 13 mph 56% 0 in 0.00 W/m2
21:49 82.3 °F 66 °F 29.77 in East 8 mph 11 mph 58% 0 in 0.00 W/m2
21:54 81.6 °F 66.4 °F 29.77 in ENE 9 mph 12 mph 60% 0 in 0.00 W/m2
21:59 80.8 °F 66.1 °F 29.77 in East 8 mph 13 mph 61% 0 in 0.00 W/m2
22:04 80.2 °F 66.5 °F 29.77 in East 9 mph 14 mph 63% 0 in 0.00 W/m2
22:09 79.9 °F 66.6 °F 29.77 in East 8 mph 14 mph 64% 0 in 0.00 W/m2
22:14 79.7 °F 66.9 °F 29.77 in ESE 5 mph 14 mph 65% 0 in 0.00 W/m2
22:19 79.7 °F 67.3 °F 29.77 in ENE 9 mph 14 mph 66% 0 in 0.00 W/m2
22:24 79.5 °F 67.6 °F 29.77 in ESE 8 mph 14 mph 67% 0 in 0.00 W/m2
22:29 79.3 °F 67.8 °F 29.78 in East 8 mph 13 mph 68% 0 in 0.00 W/m2
22:34 79 °F 67.5 °F 29.78 in ESE 9 mph 13 mph 68% 0 in 0.00 W/m2
22:39 78.7 °F 67.7 °F 29.78 in East 8 mph 13 mph 69% 0 in 0.00 W/m2
22:44 78.6 °F 68 °F 29.78 in East 11 mph 14 mph 70% 0 in 0.00 W/m2
22:49 78.5 °F 67.9 °F 29.78 in East 11 mph 15 mph 70% 0 in 0.00 W/m2
22:54 78.4 °F 68.2 °F 29.78 in SE 6 mph 15 mph 71% 0 in 0.00 W/m2
22:59 78.2 °F 68 °F 29.78 in ESE 13 mph 15 mph 71% 0 in 0.00 W/m2
23:04 78.1 °F 67.9 °F 29.78 in ESE 11 mph 16 mph 71% 0 in 0.00 W/m2
23:09 77.9 °F 67.7 °F 29.78 in ESE 11 mph 16 mph 71% 0 in 0.00 W/m2
23:14 77.7 °F 68 °F 29.78 in ESE 12 mph 15 mph 72% 0 in 0.00 W/m2
23:19 77.4 °F 67.7 °F 29.78 in East 9 mph 14 mph 72% 0 in 0.00 W/m2
23:24 77.2 °F 67.9 °F 29.78 in ESE 11 mph 15 mph 73% 0 in 0.00 W/m2
23:29 76.9 °F 67.6 °F 29.78 in ESE 13 mph 15 mph 73% 0 in 0.00 W/m2
23:34 76.8 °F 67.5 °F 29.78 in SE 8 mph 17 mph 73% 0 in 0.00 W/m2
23:39 76.9 °F 67.6 °F 29.78 in East 10 mph 17 mph 73% 0 in 0.00 W/m2
23:44 76.8 °F 67.5 °F 29.78 in East 10 mph 15 mph 73% 0 in 0.00 W/m2
23:49 76.7 °F 67.4 °F 29.77 in ESE 11 mph 15 mph 73% 0 in 0.00 W/m2
23:54 76.5 °F 67.6 °F 29.78 in ESE 10 mph 14 mph 74% 0 in 0.00 W/m2
23:59 76.3 °F 67.4 °F 29.78 in ESE 10 mph 14 mph 74% 0 in 0.00 W/m2
Bismarck, North Dakota, USA
Compliments of Weather Underground - 4 mb